Map

Track Data

SID SEASON NUMBER BASIN SUBBASIN NAME ISO_TIME NATURE LAT LON WMO_WIND WMO_PRES WMO_AGENCY TRACK_TYPE DIST2LAND LANDFALL IFLAG USA_AGENCY USA_ATCF_ID USA_LAT USA_LON USA_RECORD USA_STATUS USA_WIND USA_PRES USA_SSHS USA_R34_NE USA_R34_SE USA_R34_SW USA_R34_NW USA_R50_NE USA_R50_SE USA_R50_SW USA_R50_NW USA_R64_NE USA_R64_SE USA_R64_SW USA_R64_NW USA_POCI USA_ROCI USA_RMW USA_EYE TOKYO_LAT TOKYO_LON TOKYO_GRADE TOKYO_WIND TOKYO_PRES TOKYO_R50_DIR TOKYO_R50_LONG TOKYO_R50_SHORT TOKYO_R30_DIR TOKYO_R30_LONG TOKYO_R30_SHORT TOKYO_LAND CMA_LAT CMA_LON CMA_CAT CMA_WIND CMA_PRES HKO_LAT HKO_LON HKO_CAT HKO_WIND HKO_PRES NEWDELHI_LAT NEWDELHI_LON NEWDELHI_GRADE NEWDELHI_WIND NEWDELHI_PRES NEWDELHI_CI NEWDELHI_DP NEWDELHI_POCI REUNION_LAT REUNION_LON REUNION_TYPE REUNION_WIND REUNION_PRES REUNION_TNUM REUNION_CI REUNION_RMW REUNION_R34_NE REUNION_R34_SE REUNION_R34_SW REUNION_R34_NW REUNION_R50_NE REUNION_R50_SE REUNION_R50_SW REUNION_R50_NW REUNION_R64_NE REUNION_R64_SE REUNION_R64_SW REUNION_R64_NW BOM_LAT BOM_LON BOM_TYPE BOM_WIND BOM_PRES BOM_TNUM BOM_CI BOM_RMW BOM_R34_NE BOM_R34_SE BOM_R34_SW BOM_R34_NW BOM_R50_NE BOM_R50_SE BOM_R50_SW BOM_R50_NW BOM_R64_NE BOM_R64_SE BOM_R64_SW BOM_R64_NW BOM_ROCI BOM_POCI BOM_EYE BOM_POS_METHOD BOM_PRES_METHOD NADI_LAT NADI_LON NADI_CAT NADI_WIND NADI_PRES WELLINGTON_LAT WELLINGTON_LON WELLINGTON_WIND WELLINGTON_PRES DS824_LAT DS824_LON DS824_STAGE DS824_WIND DS824_PRES TD9636_LAT TD9636_LON TD9636_STAGE TD9636_WIND TD9636_PRES TD9635_LAT TD9635_LON TD9635_WIND TD9635_PRES TD9635_ROCI NEUMANN_LAT NEUMANN_LON NEUMANN_CLASS NEUMANN_WIND NEUMANN_PRES MLC_LAT MLC_LON MLC_CLASS MLC_WIND MLC_PRES USA_GUST BOM_GUST BOM_GUST_PER REUNION_GUST REUNION_GUST_PER USA_SEAHGT USA_SEARAD_NE USA_SEARAD_SE USA_SEARAD_SW USA_SEARAD_NW STORM_SPEED STORM_DIR
1924193N20117 1924 17 WP MM NOT_NAMED 1924-07-10 22:00:00 NR 20.0000 116.500 main 310 310 __________O___ -1 20.0000 116.500 4 9 85
1924193N20117 1924 17 WP MM NOT_NAMED 1924-07-11 00:00:00 NR 20.0274 116.810 main 319 319 __________P___ -1 20.0274 116.810 4 9 85
1924193N20117 1924 17 WP MM NOT_NAMED 1924-07-11 03:00:00 NR 20.0703 117.278 main 323 323 __________P___ -1 20.0703 117.278 4 9 84
1924193N20117 1924 17 WP MM NOT_NAMED 1924-07-11 06:00:00 NR 20.1189 117.752 main 340 321 __________P___ -1 20.1189 117.752 4 9 83
1924193N20117 1924 17 WP MM NOT_NAMED 1924-07-11 09:00:00 NR 20.1775 118.236 main 321 305 __________P___ -1 20.1775 118.236 4 9 82
1924193N20117 1924 17 WP MM NOT_NAMED 1924-07-11 10:00:00 NR 20.2000 118.400 main 305 273 __________O___ -1 20.2000 118.400 4 9 81
1924193N20117 1924 17 WP MM NOT_NAMED 1924-07-11 12:00:00 NR 20.2500 118.732 main 273 237 __________P___ -1 20.2500 118.732 4 10 80
1924193N20117 1924 17 WP MM NOT_NAMED 1924-07-11 15:00:00 NR 20.3376 119.231 main 237 197 __________P___ -1 20.3376 119.231 4 9 78
1924193N20117 1924 17 WP MM NOT_NAMED 1924-07-11 18:00:00 NR 20.4401 119.714 main 197 154 __________P___ -1 20.4401 119.714 4 9 76
1924193N20117 1924 17 WP MM NOT_NAMED 1924-07-11 21:00:00 NR 20.5575 120.162 main 154 151 __________P___ -1 20.5575 120.162 4 9 74
1924193N20117 1924 17 WP MM NOT_NAMED 1924-07-11 22:00:00 NR 20.6000 120.300 main 151 134 __________O___ -1 20.6000 120.300 4 8 70
1924193N20117 1924 17 WP MM NOT_NAMED 1924-07-12 00:00:00 NR 20.6907 120.551 main 134 123 __________P___ -1 20.6907 120.551 4 7 66
1924193N20117 1924 17 WP MM NOT_NAMED 1924-07-12 03:00:00 NR 20.8398 120.890 main 123 102 __________P___ -1 20.8398 120.890 4 7 63
1924193N20117 1924 17 WP MM NOT_NAMED 1924-07-12 06:00:00 NR 20.9963 121.199 main 105 98 __________P___ -1 20.9963 121.199 4 6 61
1924193N20117 1924 17 WP MM NOT_NAMED 1924-07-12 09:00:00 NR 21.1507 121.499 main 99 99 __________P___ -1 21.1507 121.499 4 6 61
1924193N20117 1924 17 WP MM NOT_NAMED 1924-07-12 10:00:00 NR 21.2000 121.600 main 106 106 __________O___ -1 21.2000 121.600 4 6 71
1924193N20117 1924 17 WP MM NOT_NAMED 1924-07-12 12:00:00 NR 21.2520 121.805 main 114 114 __________P___ -1 21.2520 121.805 4 6 76
1924193N20117 1924 17 WP MM NOT_NAMED 1924-07-12 15:00:00 NR 21.3230 122.111 main 141 141 __________P___ -1 21.3230 122.111 4 6 73
1924193N20117 1924 17 WP MM NOT_NAMED 1924-07-12 18:00:00 NR 21.4275 122.429 main 164 164 __________P___ -1 21.4275 122.429 4 7 65
1924193N20117 1924 17 WP MM NOT_NAMED 1924-07-12 21:00:00 NR 21.6124 122.776 main 199 197 __________P___ -1 21.6124 122.776 4 8 58
1924193N20117 1924 17 WP MM NOT_NAMED 1924-07-12 22:00:00 NR 21.7000 122.900 main 207 207 __________O___ -1 21.7000 122.900 4 10 51
1924193N20117 1924 17 WP MM NOT_NAMED 1924-07-13 00:00:00 NR 21.9212 123.179 main 228 221 __________P___ -1 21.9212 123.179 4 11 47
1924193N20117 1924 17 WP MM NOT_NAMED 1924-07-13 03:00:00 NR 22.3410 123.629 main 242 248 __________P___ -1 22.3410 123.629 4 13 43
1924193N20117 1924 17 WP MM NOT_NAMED 1924-07-13 06:00:00 NR 22.8437 124.096 main 278 277 __________P___ -1 22.8437 124.096 4 14 39
1924193N20117 1924 17 WP MM NOT_NAMED 1924-07-13 09:00:00 NR 23.4045 124.554 main 300 296 __________P___ -1 23.4045 124.554 4 14 36
1924193N20117 1924 17 WP MM NOT_NAMED 1924-07-13 10:00:00 NR 23.6000 124.700 main 301 301 __________O___ -1 23.6000 124.700 4 15 34
1924193N20117 1924 17 WP MM NOT_NAMED 1924-07-13 12:00:00 NR 24.0402 125.028 main 319 325 __________P___ -1 24.0402 125.028 4 16 33
1924193N20117 1924 17 WP MM NOT_NAMED 1924-07-13 15:00:00 NR 24.7397 125.504 main 354 353 __________P___ -1 24.7397 125.504 4 16 30
1924193N20117 1924 17 WP MM NOT_NAMED 1924-07-13 18:00:00 NR 25.4081 125.903 main 394 394 __________P___ -1 25.4081 125.903 4 14 26
1924193N20117 1924 17 WP MM NOT_NAMED 1924-07-13 21:00:00 NR 25.9581 126.158 main 435 435 __________P___ -1 25.9581 126.158 4 11 21
1924193N20117 1924 17 WP MM NOT_NAMED 1924-07-13 22:00:00 NR 26.1000 126.200 main 438 438 __________O___ -1 26.1000 126.200 4 7 7
1924193N20117 1924 17 WP MM NOT_NAMED 1924-07-14 00:00:00 NR 26.2936 126.192 main 445 429 __________P___ -1 26.2936 126.192 4 5 335
1924193N20117 1924 17 WP MM NOT_NAMED 1924-07-14 03:00:00 NR 26.4462 126.026 main 429 406 __________P___ -1 26.4462 126.026 4 4 294
1924193N20117 1924 17 WP MM NOT_NAMED 1924-07-14 06:00:00 NR 26.4747 125.740 main 406 374 __________P___ -1 26.4747 125.740 4 6 268
1924193N20117 1924 17 WP MM NOT_NAMED 1924-07-14 09:00:00 NR 26.4256 125.408 main 374 365 __________P___ -1 26.4256 125.408 4 6 259
1924193N20117 1924 17 WP MM NOT_NAMED 1924-07-14 10:00:00 NR 26.4000 125.300 main 365 347 __________O___ -1 26.4000 125.300 4 5 259
1924193N20117 1924 17 WP MM NOT_NAMED 1924-07-14 12:00:00 NR 26.3759 125.136 main 347 324 __________P___ -1 26.3759 125.136 4 5 254
1924193N20117 1924 17 WP MM NOT_NAMED 1924-07-14 15:00:00 NR 26.2957 124.884 main 324 292 __________P___ -1 26.2957 124.884 4 5 247
1924193N20117 1924 17 WP MM NOT_NAMED 1924-07-14 18:00:00 NR 26.1792 124.631 main 292 265 __________P___ -1 26.1792 124.631 4 5 241
1924193N20117 1924 17 WP MM NOT_NAMED 1924-07-14 21:00:00 NR 26.0453 124.381 main 265 256 __________P___ -1 26.0453 124.381 4 5 239
1924193N20117 1924 17 WP MM NOT_NAMED 1924-07-14 22:00:00 NR 26.0000 124.300 main 256 233 __________O___ -1 26.0000 124.300 4 5 242
1924193N20117 1924 17 WP MM NOT_NAMED 1924-07-15 00:00:00 NR 25.9250 124.129 main 233 210 __________P___ -1 25.9250 124.129 4 5 243
1924193N20117 1924 17 WP MM NOT_NAMED 1924-07-15 03:00:00 NR 25.8063 123.877 main 210 178 __________P___ -1 25.8063 123.877 4 5 240
1924193N20117 1924 17 WP MM NOT_NAMED 1924-07-15 06:00:00 NR 25.6801 123.647 main 178 160 __________P___ -1 25.6801 123.647 4 5 236
1924193N20117 1924 17 WP MM NOT_NAMED 1924-07-15 09:00:00 NR 25.5463 123.454 main 160 151 __________P___ -1 25.5463 123.454 4 4 231
1924193N20117 1924 17 WP MM NOT_NAMED 1924-07-15 10:00:00 NR 25.5000 123.400 main 151 138 __________O___ -1 25.5000 123.400 4 4 226
1924193N20117 1924 17 WP MM NOT_NAMED 1924-07-15 12:00:00 NR 25.4082 123.297 main 138 125 __________P___ -1 25.4082 123.297 4 4 220
1924193N20117 1924 17 WP MM NOT_NAMED 1924-07-15 15:00:00 NR 25.2643 123.181 main 125 111 __________P___ -1 25.2643 123.181 4 3 210
1924193N20117 1924 17 WP MM NOT_NAMED 1924-07-15 18:00:00 NR 25.1131 123.112 main 111 110 __________P___ -1 25.1131 123.112 4 3 194
1924193N20117 1924 17 WP MM NOT_NAMED 1924-07-15 21:00:00 NR 24.9545 123.094 main 110 111 __________P___ -1 24.9545 123.094 4 3 0
1924193N20117 1924 17 WP MM NOT_NAMED 1924-07-15 22:00:00 NR 24.9000 123.100 main 111 111 __________O___ -1 24.9000 123.100 4 4 0
1924193N20117 1924 17 WP MM NOT_NAMED 1924-07-16 00:00:00 NR 24.7759 123.119 main 113 113 __________P___ -1 24.7759 123.119 4 4 166
1924193N20117 1924 17 WP MM NOT_NAMED 1924-07-16 03:00:00 NR 24.5832 123.191 main 129 129 __________P___ -1 24.5832 123.191 4 4 156
1924193N20117 1924 17 WP MM NOT_NAMED 1924-07-16 06:00:00 NR 24.3992 123.305 main 142 142 __________P___ -1 24.3992 123.305 4 4 145
1924193N20117 1924 17 WP MM NOT_NAMED 1924-07-16 09:00:00 NR 24.2428 123.448 main 155 165 __________P___ -1 24.2428 123.448 4 4 139
1924193N20117 1924 17 WP MM NOT_NAMED 1924-07-16 10:00:00 NR 24.2000 123.500 main 165 165 __________O___ -1 24.2000 123.500 4 4 138
1924193N20117 1924 17 WP MM NOT_NAMED 1924-07-16 12:00:00 NR 24.1039 123.587 main 177 177 __________P___ -1 24.1039 123.587 4 4 134
1924193N20117 1924 17 WP MM NOT_NAMED 1924-07-16 15:00:00 NR 23.9906 123.736 main 190 190 __________P___ -1 23.9906 123.736 4 3 119
1924193N20117 1924 17 WP MM NOT_NAMED 1924-07-16 18:00:00 NR 23.9365 123.912 main 213 213 __________P___ -1 23.9365 123.912 4 4 94
1924193N20117 1924 17 WP MM NOT_NAMED 1924-07-16 21:00:00 NR 23.9668 124.122 main 229 229 __________P___ -1 23.9668 124.122 4 4 76
1924193N20117 1924 17 WP MM NOT_NAMED 1924-07-16 22:00:00 NR 24.0000 124.200 main 239 239 __________O___ -1 24.0000 124.200 4 6 64
1924193N20117 1924 17 WP MM NOT_NAMED 1924-07-17 00:00:00 NR 24.0991 124.417 main 257 257 __________P___ -1 24.0991 124.417 4 7 58
1924193N20117 1924 17 WP MM NOT_NAMED 1924-07-17 03:00:00 NR 24.3292 124.777 main 293 290 __________P___ -1 24.3292 124.777 4 8 50
1924193N20117 1924 17 WP MM NOT_NAMED 1924-07-17 06:00:00 NR 24.6319 125.112 main 315 314 __________P___ -1 24.6319 125.112 4 8 39
1924193N20117 1924 17 WP MM NOT_NAMED 1924-07-17 09:00:00 NR 24.9791 125.353 main 342 342 __________P___ -1 24.9791 125.353 4 8 29
1924193N20117 1924 17 WP MM NOT_NAMED 1924-07-17 10:00:00 NR 25.1000 125.400 main 342 342 __________O___ -1 25.1000 125.400 4 7 10
1924193N20117 1924 17 WP MM NOT_NAMED 1924-07-17 12:00:00 NR 25.3447 125.432 main 343 344 __________P___ -1 25.3447 125.432 4 7 357
1924193N20117 1924 17 WP MM NOT_NAMED 1924-07-17 15:00:00 NR 25.7172 125.351 main 350 336 __________P___ -1 25.7172 125.351 4 8 342
1924193N20117 1924 17 WP MM NOT_NAMED 1924-07-17 18:00:00 NR 26.0942 125.155 main 343 329 __________P___ -1 26.0942 125.155 4 9 332
1924193N20117 1924 17 WP MM NOT_NAMED 1924-07-17 21:00:00 NR 26.4735 124.894 main 335 326 __________P___ -1 26.4735 124.894 4 9 328
1924193N20117 1924 17 WP MM NOT_NAMED 1924-07-17 22:00:00 NR 26.6000 124.800 main 332 __________O___ -1 26.6000 124.800 4 9 329

Digital Typhoon Data and Search

About IBTrACS Database

This database is a web-friendly format of International Best Track Archive for Climate Stewardship (IBTrACS), a global best track data archive curated by NOAA dating back to 1842.

Updated: 2021-12-03